Aeroporto :
LOGIN :

Iscrizione | Disclaimer

   EN    FR    IT 

 










Sommario :    VFR   VFR Marginale   IFR   IFR Intensivo   IFR Molto Intensivo
Visibilità : 
Base nubi : 
>= 8 km
>= 3000ft
5 / 8 km
1000 / 3000 ft
1500m / 5 km
500 / 1000 ft
800 / 1500m
200 / 500 ft
< 800m
< 200 ft
Simboli :   Temporali  Nebbia  Neve Forte  Precipitazioni Forti  Vento > 20 kt
SIGMETs :   Varie  Temporali  Ghiacco  Turbolenza  Onda orograficha  Ceneri Vulcaniche






- Altitudine del aeroporto : 218 ft
- Codice IATA : LBG


LFPB - Paris / Le Bourget

ULTIMO METAR :
  • 150700Z AUTO 02007KT 7000 -RA OVC012/// ///TCU 05/03 Q0998 TEMPO RA BKN008

METARs OBSOLETI :
  • 150630Z AUTO 36007KT 310V030 6000 -RA OVC012/// ///TCU 05/04 Q0997 TEMPO RA BKN008
  • 150600Z AUTO 35006KT 320V030 7000 -RA OVC015/// ///TCU 05/04 Q0997 TEMPO 3000 RA BKN007
  • 150530Z AUTO 36008KT 320V020 8000 -RA BKN013/// OVC018/// ///TCU 05/03 Q0997 TEMPO 3000 RA BKN007
  • 150500Z AUTO 36007KT 6000 -RA OVC011/// ///TCU 05/04 Q0998 TEMPO 3000 RA BKN007
  • 150430Z AUTO 35007KT 320V030 8000 -RA BKN009/// OVC013/// ///TCU 05/04 Q0998 TEMPO 3000 RA BKN007

TAF TAF LFPB
Valido dal 15 a 06 ore il 16 a 06 ore UTC


150500Z 1506/1606 36010KT 6000 -RA BKN012
TEMPO 1506/1514 RA BKN008
BECMG 1514/1516 18005KT BKN010
PROB30
TEMPO 1517/1521 4000 -RASN BKN004
TEMPO 1521/1606 BKN008
ATIS : +33 1 48 62 43 92



MetMap, La meteo Aeronautica in un colpo d'occhio ! - Copyright ORBIFLY Dicembre 2007 - Disclaimer

ORBIFLY MET'MAP TEAM :

Programmazione e sviluppo : Alexandra Zaïnal
Concezione e sviluppo : Baudouin d'Aumeries
Co-Programmazione e sviluppo : Marc-Olivier Méhu
Supporto tecnico e logistico : Manuel Goepfert
Aiuto per la traduzione : Arnaldo La Scala

Contatto : metmap@orbifly.com




FONTI E CREDITI :

   NOAA